Time;durP1;ratioP1;P1;durP2;ratioP2;P2;SDS_P1;SDS_P2;PMS_P1;PMS_P2;Temp;Humidity;BMP_temperature;BMP_pressure;BME280_temperature;BME280_humidity;BME280_pressure;Samples;Min_cycle;Max_cycle;Signal;HPM_P1;HPM_P2
2021/12/26 00:02:29;;;;;;;7.90;4.10;;;1.40;99.90;;;;;;6724657;88;20196;-78
2021/12/26 00:12:29;;;;;;;7.68;4.05;;;1.50;99.90;;;;;;6725485;88;20228;-77
2021/12/26 00:22:30;;;;;;;9.13;3.47;;;1.40;99.90;;;;;;6721681;88;20200;-77
2021/12/26 00:32:30;;;;;;;6.12;3.55;;;1.40;99.90;;;;;;6723634;88;20267;-80
2021/12/26 00:42:31;;;;;;;7.53;4.07;;;1.30;99.90;;;;;;6721596;88;20189;-78
2021/12/26 00:52:31;;;;;;;6.57;3.83;;;1.30;99.90;;;;;;6720780;88;20221;-77
2021/12/26 01:02:32;;;;;;;8.65;4.68;;;1.30;99.90;;;;;;6721007;88;20677;-78
2021/12/26 01:12:34;;;;;;;9.03;4.40;;;1.20;99.90;;;;;;6726621;88;20337;-78
2021/12/26 01:22:34;;;;;;;5.70;3.08;;;1.20;99.90;;;;;;6709484;88;21188;-79
2021/12/26 01:32:35;;;;;;;7.60;4.50;;;1.20;99.90;;;;;;6705148;88;20340;-78
2021/12/26 01:42:35;;;;;;;9.23;4.90;;;1.10;99.90;;;;;;6704871;88;20523;-78
2021/12/26 01:52:36;;;;;;;7.37;4.57;;;1.10;99.90;;;;;;6703677;88;20214;-78
2021/12/26 02:02:36;;;;;;;9.75;4.50;;;1.20;99.90;;;;;;6707912;88;20197;-78
2021/12/26 02:12:37;;;;;;;6.32;2.60;;;1.10;99.90;;;;;;6708839;88;20186;-77
2021/12/26 02:22:41;;;;;;;7.32;4.10;;;1.10;99.90;;;;;;6726372;88;20190;-77
2021/12/26 02:32:44;;;;;;;9.07;4.90;;;1.20;99.90;;;;;;6723634;88;20236;-78
2021/12/26 02:42:45;;;;;;;5.28;3.08;;;1.10;99.90;;;;;;6723898;88;20189;-77
2021/12/26 02:52:48;;;;;;;9.07;4.25;;;1.00;99.90;;;;;;6726138;88;20193;-78
2021/12/26 03:02:52;;;;;;;5.90;3.25;;;1.00;99.90;;;;;;6726518;88;20193;-77
2021/12/26 03:12:59;;;;;;;11.00;5.20;;;1.00;99.90;;;;;;6725477;77;20229;-74
2021/12/26 03:23:01;;;;;;;11.12;5.68;;;1.00;99.90;;;;;;6733793;88;20726;-75
2021/12/26 03:33:04;;;;;;;10.52;5.68;;;1.00;99.90;;;;;;6720516;88;20213;-74
2021/12/26 03:43:06;;;;;;;10.50;5.43;;;1.10;99.90;;;;;;6721160;88;20637;-74
2021/12/26 03:53:08;;;;;;;9.90;4.80;;;1.00;99.90;;;;;;6719816;88;20368;-74
2021/12/26 04:03:09;;;;;;;9.55;4.90;;;1.00;99.90;;;;;;6719391;88;20203;-75
2021/12/26 04:13:10;;;;;;;10.90;6.37;;;1.00;99.90;;;;;;6718107;88;20218;-74
2021/12/26 04:23:12;;;;;;;10.32;4.57;;;1.10;99.90;;;;;;6716221;88;20205;-76
2021/12/26 04:33:13;;;;;;;9.18;4.55;;;1.00;99.90;;;;;;6716903;88;20297;-74
2021/12/26 04:43:15;;;;;;;9.93;4.68;;;1.00;99.90;;;;;;6720397;88;20197;-76
2021/12/26 04:53:15;;;;;;;13.18;5.78;;;1.00;99.90;;;;;;6722356;88;20189;-77
2021/12/26 05:03:16;;;;;;;10.32;5.75;;;1.10;99.90;;;;;;6722406;88;20793;-75
2021/12/26 05:13:16;;;;;;;10.18;5.37;;;1.00;99.90;;;;;;6718774;88;20339;-76
2021/12/26 05:23:17;;;;;;;14.30;6.00;;;1.10;99.90;;;;;;6737696;88;20240;-76
2021/12/26 05:33:18;;;;;;;8.98;4.55;;;1.20;99.90;;;;;;6739080;88;20673;-74
2021/12/26 05:43:19;;;;;;;10.02;5.07;;;1.20;99.90;;;;;;6738602;88;20253;-74
2021/12/26 05:53:20;;;;;;;12.13;5.82;;;1.10;99.90;;;;;;6739090;88;20195;-74
2021/12/26 06:03:20;;;;;;;14.63;7.43;;;1.00;99.90;;;;;;6739400;88;20643;-74
2021/12/26 06:13:21;;;;;;;8.80;3.95;;;1.00;99.90;;;;;;6736524;88;20232;-74
2021/12/26 06:23:21;;;;;;;12.75;6.35;;;1.10;99.90;;;;;;6719996;88;20323;-74
2021/12/26 06:33:22;;;;;;;10.02;4.87;;;1.20;99.90;;;;;;6720735;88;20198;-76
2021/12/26 06:43:23;;;;;;;10.80;4.57;;;1.20;99.90;;;;;;6718621;88;20340;-77
2021/12/26 06:53:23;;;;;;;15.52;7.28;;;1.30;99.90;;;;;;6719500;88;20632;-75
2021/12/26 07:03:24;;;;;;;15.77;7.47;;;1.20;99.90;;;;;;6720478;88;20209;-74
2021/12/26 07:13:24;;;;;;;14.15;7.07;;;1.30;99.90;;;;;;6725729;88;20189;-75
2021/12/26 07:23:25;;;;;;;13.55;7.43;;;1.30;99.90;;;;;;6716861;88;20640;-75
2021/12/26 07:33:26;;;;;;;17.65;7.72;;;1.40;99.90;;;;;;6719596;88;20685;-74
2021/12/26 07:43:27;;;;;;;11.35;5.03;;;1.30;99.90;;;;;;6720269;88;20255;-77
2021/12/26 07:53:27;;;;;;;13.88;7.37;;;1.40;99.90;;;;;;6720065;88;20238;-74
2021/12/26 08:03:28;;;;;;;13.98;7.10;;;1.50;99.90;;;;;;6722389;88;20296;-75
2021/12/26 08:13:30;;;;;;;15.88;7.30;;;1.50;99.90;;;;;;6732717;88;20730;-75
2021/12/26 08:23:30;;;;;;;10.57;4.90;;;1.60;99.90;;;;;;6722706;88;20255;-74
2021/12/26 08:33:31;;;;;;;13.55;6.28;;;1.60;99.90;;;;;;6722512;88;20247;-75
2021/12/26 08:43:32;;;;;;;14.48;7.28;;;1.70;99.90;;;;;;6723619;88;20506;-75
2021/12/26 08:53:33;;;;;;;10.57;5.45;;;1.80;99.90;;;;;;6722154;88;20331;-74
2021/12/26 09:13:37;;;;;;;13.88;6.68;;;1.60;99.90;;;;;;6763545;88;20291;-81
2021/12/26 09:23:37;;;;;;;9.60;4.32;;;1.60;99.90;;;;;;6746444;88;20590;-78
2021/12/26 09:33:38;;;;;;;15.80;7.95;;;1.70;99.90;;;;;;6743697;88;20670;-78
2021/12/26 09:43:39;;;;;;;13.10;5.30;;;1.70;99.90;;;;;;6743284;88;20193;-79
2021/12/26 09:53:41;;;;;;;10.65;5.50;;;1.80;99.90;;;;;;6743797;88;20635;-78
2021/12/26 10:03:42;;;;;;;8.45;4.28;;;1.90;99.90;;;;;;6758987;88;20611;-78
2021/12/26 10:13:47;;;;;;;17.17;6.97;;;1.90;99.90;;;;;;6757866;88;20208;-78
2021/12/26 10:23:48;;;;;;;11.35;6.22;;;2.10;99.90;;;;;;6754690;88;20722;-78
2021/12/26 10:33:49;;;;;;;14.65;7.30;;;2.10;99.90;;;;;;6756179;88;20420;-78
2021/12/26 10:43:49;;;;;;;12.20;6.72;;;2.20;99.90;;;;;;6738397;88;20261;-79
2021/12/26 10:54:17;;;;;;;13.07;6.05;;;2.20;99.90;;;;;;6738691;88;20276;-79
2021/12/26 11:04:18;;;;;;;11.05;4.90;;;2.30;99.90;;;;;;6762294;88;20219;-79
2021/12/26 11:14:19;;;;;;;13.40;6.75;;;2.30;99.90;;;;;;6755310;88;20195;-79
2021/12/26 11:24:19;;;;;;;14.40;7.18;;;2.40;99.90;;;;;;6754561;88;20363;-80
2021/12/26 11:34:20;;;;;;;8.77;4.12;;;2.40;99.90;;;;;;6756701;88;20330;-80
2021/12/26 11:45:01;;;;;;;10.75;5.22;;;2.40;99.90;;;;;;6738488;88;20234;-79
2021/12/26 11:55:25;;;;;;;11.05;5.47;;;2.50;99.90;;;;;;6733787;88;20200;-81
2021/12/26 12:05:36;;;;;;;11.48;5.82;;;2.60;99.90;;;;;;6751703;88;20295;-80
2021/12/26 12:15:51;;;;;;;5.93;2.67;;;2.90;99.90;;;;;;6755311;88;20301;-79
2021/12/26 12:25:52;;;;;;;13.00;6.68;;;2.90;99.90;;;;;;6755614;88;20180;-80
2021/12/26 12:36:03;;;;;;;13.50;6.82;;;3.00;99.90;;;;;;6749943;88;20665;-80
2021/12/26 12:46:06;;;;;;;14.48;6.37;;;3.30;99.90;;;;;;6748686;88;20226;-80
2021/12/26 12:56:08;;;;;;;13.68;6.97;;;3.20;99.90;;;;;;6748821;88;20184;-80
2021/12/26 13:06:12;;;;;;;10.32;5.53;;;3.30;99.90;;;;;;6752875;88;20199;-81
2021/12/26 13:16:13;;;;;;;9.75;5.30;;;3.30;99.90;;;;;;6755974;88;20205;-79
2021/12/26 13:26:21;;;;;;;15.52;6.62;;;3.50;99.90;;;;;;6752111;88;20217;-79
2021/12/26 13:36:24;;;;;;;15.00;7.05;;;3.30;99.90;;;;;;6754770;88;20203;-80
2021/12/26 13:46:32;;;;;;;13.02;6.62;;;3.30;99.90;;;;;;6749070;88;20172;-80
2021/12/26 13:56:47;;;;;;;12.77;7.25;;;3.40;99.90;;;;;;6750593;88;20177;-80
2021/12/26 14:06:48;;;;;;;12.00;6.20;;;3.50;99.90;;;;;;6748775;88;20172;-80
2021/12/26 14:16:51;;;;;;;11.38;6.00;;;3.50;99.90;;;;;;6752785;88;20192;-80
2021/12/26 14:26:52;;;;;;;14.43;6.70;;;3.40;99.90;;;;;;6752379;88;20208;-79
2021/12/26 14:36:58;;;;;;;12.88;6.57;;;3.30;99.90;;;;;;6715412;88;20802;-80
2021/12/26 14:47:18;;;;;;;11.97;6.13;;;3.30;99.90;;;;;;6715266;88;20181;-80
2021/12/26 14:57:30;;;;;;;12.77;6.82;;;3.20;99.90;;;;;;6715532;88;20220;-79
2021/12/26 15:07:31;;;;;;;13.40;6.50;;;3.00;99.90;;;;;;6714036;77;20198;-77
2021/12/26 15:17:31;;;;;;;13.73;6.35;;;3.00;99.90;;;;;;6719214;88;20242;-77
2021/12/26 15:27:32;;;;;;;14.02;7.05;;;3.00;99.90;;;;;;6716341;88;20257;-76
2021/12/26 15:37:32;;;;;;;13.15;6.30;;;3.00;99.90;;;;;;6698962;88;20601;-76
2021/12/26 15:47:34;;;;;;;15.00;7.18;;;2.80;99.90;;;;;;6702487;88;20219;-76
2021/12/26 15:57:34;;;;;;;13.40;7.28;;;2.70;99.90;;;;;;6701224;88;20252;-76
2021/12/26 16:07:35;;;;;;;11.35;5.15;;;2.70;99.90;;;;;;6701297;88;20293;-76
2021/12/26 16:17:35;;;;;;;11.73;6.35;;;2.60;99.90;;;;;;6715617;88;20184;-76
2021/12/26 16:27:38;;;;;;;15.95;8.07;;;2.60;99.90;;;;;;6736047;88;20203;-76
2021/12/26 16:37:40;;;;;;;15.68;7.78;;;2.60;99.90;;;;;;6737790;88;20221;-76
2021/12/26 16:47:41;;;;;;;13.13;7.05;;;2.70;99.90;;;;;;6737415;88;20687;-76
2021/12/26 16:57:42;;;;;;;14.35;7.10;;;2.80;99.90;;;;;;6738034;88;20546;-76
2021/12/26 17:07:42;;;;;;;13.43;7.13;;;2.80;99.90;;;;;;6734746;88;20556;-76
2021/12/26 17:17:43;;;;;;;12.73;6.10;;;2.80;99.90;;;;;;6705020;88;20507;-76
2021/12/26 17:27:45;;;;;;;13.10;6.68;;;2.80;99.90;;;;;;6721158;88;20307;-76
2021/12/26 17:37:46;;;;;;;10.93;5.72;;;2.70;99.90;;;;;;6720455;88;20195;-76
2021/12/26 17:47:47;;;;;;;17.27;8.50;;;2.70;99.90;;;;;;6720353;88;20241;-79
2021/12/26 17:57:47;;;;;;;11.43;5.75;;;2.70;99.90;;;;;;6717969;88;20695;-76
2021/12/26 18:07:48;;;;;;;11.82;5.93;;;2.80;99.90;;;;;;6718634;88;20228;-76
2021/12/26 18:17:50;;;;;;;15.45;8.45;;;2.80;99.90;;;;;;6710618;88;20232;-76
2021/12/26 18:27:50;;;;;;;15.75;7.57;;;2.90;99.90;;;;;;6702812;88;20738;-76
2021/12/26 18:37:52;;;;;;;12.60;5.95;;;2.80;99.90;;;;;;6734732;88;20200;-76
2021/12/26 18:47:53;;;;;;;17.55;7.07;;;2.80;99.90;;;;;;6736299;88;20184;-76
2021/12/26 18:57:55;;;;;;;16.73;8.20;;;2.80;99.90;;;;;;6737383;88;20911;-76
2021/12/26 19:07:57;;;;;;;13.38;6.95;;;2.80;99.90;;;;;;6735901;88;20632;-76
2021/12/26 19:17:57;;;;;;;14.63;6.65;;;2.80;99.90;;;;;;6726845;88;20239;-76
2021/12/26 19:27:59;;;;;;;13.40;6.00;;;2.80;99.90;;;;;;6717574;88;20652;-76
2021/12/26 19:37:59;;;;;;;14.80;6.97;;;2.90;99.90;;;;;;6716970;88;20335;-77
2021/12/26 19:48:00;;;;;;;16.27;8.40;;;2.80;99.90;;;;;;6717395;88;20335;-76
2021/12/26 19:58:01;;;;;;;18.90;8.83;;;2.90;99.90;;;;;;6717186;88;20176;-76
2021/12/26 20:08:04;;;;;;;14.55;5.95;;;2.90;99.90;;;;;;6719143;88;20638;-76
2021/12/26 20:18:04;;;;;;;18.33;8.15;;;3.00;99.90;;;;;;6719715;88;20173;-76
2021/12/26 20:28:05;;;;;;;11.80;6.05;;;2.80;99.90;;;;;;6721665;88;20240;-76
2021/12/26 20:38:06;;;;;;;12.07;6.20;;;2.70;99.90;;;;;;6721431;88;20178;-76
2021/12/26 20:48:07;;;;;;;19.33;8.05;;;2.60;99.90;;;;;;6721914;88;20200;-76
2021/12/26 20:58:07;;;;;;;18.52;8.80;;;2.70;99.90;;;;;;6719782;88;20225;-76
2021/12/26 21:18:11;;;;;;;17.75;8.15;;;2.70;99.90;;;;;;6761676;88;20303;-77
2021/12/26 21:28:12;;;;;;;17.98;7.05;;;2.70;99.90;;;;;;6770837;88;20795;-77
2021/12/26 21:38:13;;;;;;;16.25;8.13;;;2.70;99.90;;;;;;6770015;88;20201;-77
2021/12/26 21:48:13;;;;;;;18.65;8.77;;;2.70;99.90;;;;;;6765579;88;20207;-77
2021/12/26 21:58:14;;;;;;;15.05;7.40;;;2.70;99.90;;;;;;6732208;88;20351;-76
2021/12/26 22:08:15;;;;;;;17.40;7.62;;;2.60;99.90;;;;;;6727144;88;20699;-77
2021/12/26 22:18:16;;;;;;;9.10;5.10;;;2.70;99.90;;;;;;6726891;88;20248;-77
2021/12/26 22:28:18;;;;;;;14.55;6.55;;;2.70;99.90;;;;;;6760083;87;21037;-76
2021/12/26 22:38:18;;;;;;;18.37;9.63;;;2.70;99.90;;;;;;6767983;87;20286;-77
2021/12/26 22:48:19;;;;;;;13.00;6.20;;;2.80;99.90;;;;;;6774549;87;20176;-76
2021/12/26 22:58:19;;;;;;;15.52;7.10;;;2.80;99.90;;;;;;6766401;87;20238;-76
2021/12/26 23:08:20;;;;;;;9.38;4.55;;;2.80;99.90;;;;;;6766652;87;20191;-76
2021/12/26 23:18:27;;;;;;;12.23;5.72;;;2.80;99.90;;;;;;6766082;88;20765;-76
2021/12/26 23:28:27;;;;;;;10.45;3.95;;;2.90;99.90;;;;;;6766412;88;20189;-76
2021/12/26 23:38:32;;;;;;;14.10;6.78;;;2.90;99.90;;;;;;6767021;88;20350;-76
2021/12/26 23:48:33;;;;;;;15.25;7.62;;;2.90;99.90;;;;;;6766740;87;20208;-76
2021/12/26 23:58:33;;;;;;;18.25;8.48;;;2.90;99.90;;;;;;6773330;87;20583;-76
